WetterOnline ( https://www.wetteronline.at )

Wetter aktuell Rostock

Aktuelles Wetter: Rostock-Warnemünde (10m)

6-stündlich | Neueste Meldungen
Ortszeit Temperatur Wetter
So, 04.12. 7:00 0.3° C bewölkt
So, 04.12. 1:00 -0.3° C bedeckt
Sa, 03.12. 19:00 -0.4° C bedeckt
Sa, 03.12. 13:00 1.6° C bedeckt
Sa, 03.12. 7:00 1.2° C bewölkt
Sa, 03.12. 1:00 2.1° C bedeckt
Fr, 02.12. 19:00 3.6° C bedeckt
Fr, 02.12. 13:00 2.9° C bedeckt
Ortszeit Temperatur Wetter
So, 04.12. 12:30 4.0° C bedeckt
So, 04.12. 12:20 4.0° C bedeckt
So, 04.12. 12:10 3.9° C bedeckt
So, 04.12. 12:00 3.8° C bedeckt
So, 04.12. 11:50 3.8° C bedeckt
So, 04.12. 11:40 3.7° C bedeckt
So, 04.12. 11:30 3.5° C bedeckt
So, 04.12. 11:00 3.0° C bedeckt
So, 04.12. 10:30 2.7° C bedeckt
So, 04.12. 10:00 2.2° C bedeckt
So, 04.12. 9:30 1.8° C bedeckt
Ortszeit Relative Feuchte Sichtweite
So, 04.12. 7:00 88% 8 km
So, 04.12. 1:00 83% 9 km
Sa, 03.12. 19:00 80% 13 km
Sa, 03.12. 13:00 82% 18 km
Sa, 03.12. 7:00 83% 18 km
Sa, 03.12. 1:00 80% 27 km
Fr, 02.12. 19:00 82% 35 km
Fr, 02.12. 13:00 78% 22 km
Ortszeit Relative Feuchte Sichtweite
So, 04.12. 12:30 84% 15 km
So, 04.12. 12:20 84% -
So, 04.12. 12:10 84% -
So, 04.12. 12:00 84% 14 km
So, 04.12. 11:50 84% -
So, 04.12. 11:40 83% -
So, 04.12. 11:30 84% 13 km
So, 04.12. 11:00 85% 11 km
So, 04.12. 10:30 86% 11 km
So, 04.12. 10:00 86% 10 km
So, 04.12. 9:30 87% 10 km
Ortszeit Niederschlagsmenge Niederschlagsart
So, 04.12. 7:00 0.0 l/m2 in 12 Std. -
So, 04.12. 1:00 0.0 l/m2 in 6 Std. -
Sa, 03.12. 19:00 0.1 l/m2 in 12 Std. Schnee, Regen
Sa, 03.12. 13:00 0.1 l/m2 in 6 Std. Schnee, Regen
Sa, 03.12. 7:00 0.1 l/m2 in 12 Std. Schnee, Sprühregen
Sa, 03.12. 1:00 0.0 l/m2 in 6 Std. -
Fr, 02.12. 19:00 0.0 l/m2 in 12 Std. -
Fr, 02.12. 13:00 0.0 l/m2 in 6 Std. -
Ortszeit Niederschlagsmenge Niederschlagsart
So, 04.12. 12:30 0.0 l/m2 in 30 Min -
So, 04.12. 12:20 keine Meldung -
So, 04.12. 12:10 keine Meldung -
So, 04.12. 12:00 0.0 l/m2 in 1 Std. -
So, 04.12. 11:50 keine Meldung -
So, 04.12. 11:40 keine Meldung -
So, 04.12. 11:30 0.0 l/m2 in 30 Min -
So, 04.12. 11:00 0.0 l/m2 in 1 Std. -
So, 04.12. 10:30 0.0 l/m2 in 30 Min -
So, 04.12. 10:00 0.0 l/m2 in 1 Std. -
So, 04.12. 9:30 0.0 l/m2 in 30 Min -
Ortszeit Stärke Spitze Richtung
km/h Bft. km/h Grad Sektor
So, 04.12. 7:00 9 2 20 100° O
So, 04.12. 1:00 11 2 22 120° SO
Sa, 03.12. 19:00 9 2 26 100° O
Sa, 03.12. 13:00 7 2 25 110° O
Sa, 03.12. 7:00 7 2 25 90° O
Sa, 03.12. 1:00 9 2 30 90° O
Fr, 02.12. 19:00 9 2 20 90° O
Fr, 02.12. 13:00 11 2 18 50° NO
Ortszeit Stärke Spitze Richtung
km/h Bft. km/h Grad Sektor
So, 04.12. 12:30 18 3 29 60° NO
So, 04.12. 12:20 18 3 - 60° NO
So, 04.12. 12:10 15 3 - 60° NO
So, 04.12. 12:00 14 3 25 60° NO
So, 04.12. 11:50 14 3 - 60° NO
So, 04.12. 11:40 13 3 - 70° O
So, 04.12. 11:30 9 2 22 70° O
So, 04.12. 11:00 11 2 25 80° O
So, 04.12. 10:30 11 2 22 80° O
So, 04.12. 10:00 9 2 20 90° O
So, 04.12. 9:30 9 2 19 100° O
Ortszeit Untergrenze Bedeckung Gattung
total tief tief mittel hoch
So, 04.12. 7:00 1020 m 7/8 7/8 - - -
So, 04.12. 1:00 1050 m 8/8 8/8 - - -
Sa, 03.12. 19:00 420 m 8/8 8/8 - - -
Sa, 03.12. 13:00 330 m 8/8 8/8 - - -
Sa, 03.12. 7:00 540 m 7/8 7/8 - - -
Sa, 03.12. 1:00 720 m 8/8 8/8 - - -
Fr, 02.12. 19:00 2700 m 8/8 8/8 - - -
Fr, 02.12. 13:00 1050 m 8/8 8/8 - - -
Ortszeit Bedeckungsgrad in Achtel und Wolkenuntergrenze
So, 04.12. 12:30 8(660m) 8(1200m)
So, 04.12. 12:20 8(660m) 8(1200m)
So, 04.12. 12:10 8
So, 04.12. 12:00 7(780m) 8(1140m)
So, 04.12. 11:50 7(780m) 8(1140m)
So, 04.12. 11:40 8
So, 04.12. 11:30 8(1020m)
So, 04.12. 11:00 8(1020m)
So, 04.12. 10:30 8(1050m)
So, 04.12. 10:00 8(1110m)
So, 04.12. 9:30 8(1050m)
Ortszeit Luftdruck NN (hPa) Tendenz (hPa in 3 Std.)
So, 04.12. 7:00 1024 - 0,2
So, 04.12. 1:00 1025 - 0,2
Sa, 03.12. 19:00 1024 + 0,1
Sa, 03.12. 13:00 1025 - 1,3
Sa, 03.12. 7:00 1027 - 0,9
Sa, 03.12. 1:00 1029 - 0,2
Fr, 02.12. 19:00 1029 + 0,3
Fr, 02.12. 13:00 1029 - 0,3
Ortszeit Luftdruck NN (hPa) Tendenz (hPa in 3 Std.)
So, 04.12. 12:30 1023 - 0,8
So, 04.12. 12:20 1023 keine Meldung
So, 04.12. 12:10 1023 keine Meldung
So, 04.12. 12:00 1023 - 0,5
So, 04.12. 11:50 1023 keine Meldung
So, 04.12. 11:40 1023 keine Meldung
So, 04.12. 11:30 1024 - 0,3
So, 04.12. 11:00 1024 + 0,1
So, 04.12. 10:30 1024 + 0,1
So, 04.12. 10:00 1024 + 0,1
So, 04.12. 9:30 1024 + 0,1
Ortszeit Schneehöhe (cm)
So, 04.12. 7:00 0
So, 04.12. 1:00 0
Sa, 03.12. 19:00 0
Sa, 03.12. 13:00 0
Sa, 03.12. 7:00 0
Sa, 03.12. 1:00 0
Fr, 02.12. 19:00 0
Fr, 02.12. 13:00 0
Ortszeit Schneehöhe (cm)
So, 04.12. 12:30 0
So, 04.12. 12:20 0
So, 04.12. 12:10 0
So, 04.12. 12:00 0
So, 04.12. 11:50 0
So, 04.12. 11:40 0
So, 04.12. 11:30 0
So, 04.12. 11:00 0
So, 04.12. 10:30 0
So, 04.12. 10:00 0
So, 04.12. 9:30 0
Link zu dieser Seite / Seite empfehlen

Das Wetter in ...